createdAt,value
2023-03-04T00:00:34.874Z,46.73
2023-03-04T00:03:03.080Z,45.53
2023-03-04T00:05:31.184Z,37.13
2023-03-04T00:07:59.483Z,39.73
2023-03-04T00:10:27.130Z,44.50
2023-03-04T00:12:55.028Z,43.17
2023-03-04T00:15:23.949Z,43.67
2023-03-04T00:17:51.821Z,38.97
2023-03-04T00:20:19.464Z,37.93
2023-03-04T00:22:48.072Z,38.53
2023-03-04T00:25:16.238Z,40.40
2023-03-04T00:27:43.774Z,38.33
2023-03-04T00:30:12.823Z,40.17
2023-03-04T00:32:41.861Z,45.37
2023-03-04T00:35:09.881Z,45.13
2023-03-04T00:37:37.504Z,38.07
2023-03-04T00:40:06.674Z,38.83
2023-03-04T00:42:34.271Z,45.70
2023-03-04T00:45:02.349Z,45.57
2023-03-04T00:47:29.984Z,40.20
2023-03-04T00:49:58.990Z,41.23
2023-03-04T00:52:26.687Z,37.60
2023-03-04T00:54:54.882Z,34.90
2023-03-04T00:57:22.602Z,37.57
2023-03-04T00:59:51.360Z,40.30
2023-03-04T01:02:19.436Z,36.77
2023-03-04T01:04:47.741Z,38.30
2023-03-04T01:07:17.845Z,36.03
2023-03-04T01:09:46.675Z,33.13
2023-03-04T01:12:14.285Z,40.67
2023-03-04T01:14:42.051Z,29.47
2023-03-04T01:17:09.632Z,40.93
2023-03-04T01:19:38.508Z,34.43
2023-03-04T01:22:06.164Z,35.20
2023-03-04T01:24:36.889Z,34.00
2023-03-04T01:27:07.137Z,29.97
2023-03-04T01:29:36.015Z,30.30
2023-03-04T01:32:04.038Z,37.17
2023-03-04T01:34:31.976Z,36.83
2023-03-04T01:36:59.525Z,33.80
2023-03-04T01:39:27.365Z,26.90
2023-03-04T01:41:56.584Z,26.60
2023-03-04T01:44:24.581Z,29.67
2023-03-04T01:46:54.865Z,26.90
2023-03-04T01:49:24.950Z,29.83
2023-03-04T01:51:54.951Z,26.00
2023-03-04T01:54:24.003Z,27.43
2023-03-04T01:56:53.624Z,22.67
2023-03-04T01:59:24.687Z,26.53
2023-03-04T02:01:54.028Z,23.50
2023-03-04T02:04:24.977Z,28.07
2023-03-04T02:06:54.051Z,25.10
2023-03-04T02:09:22.219Z,27.00
2023-03-04T02:11:51.254Z,23.43
2023-03-04T02:14:20.355Z,24.10
2023-03-04T02:16:50.493Z,28.10
2023-03-04T02:19:29.828Z,22.77
2023-03-04T02:21:57.796Z,29.70
2023-03-04T02:24:32.476Z,28.60
2023-03-04T02:27:01.446Z,26.57
2023-03-04T02:29:30.108Z,32.13
2023-03-04T02:31:57.983Z,24.83
2023-03-04T02:34:30.141Z,31.47
2023-03-04T02:36:59.212Z,27.97
2023-03-04T02:39:33.515Z,30.03
2023-03-04T02:42:04.339Z,31.97
2023-03-04T02:44:36.328Z,29.23
2023-03-04T02:47:05.286Z,26.20
2023-03-04T02:49:35.121Z,25.00
2023-03-04T02:52:05.925Z,28.73
2023-03-04T02:54:34.640Z,28.33
2023-03-04T02:57:06.878Z,23.27
2023-03-04T02:59:38.282Z,24.73
2023-03-04T03:02:06.878Z,27.97
2023-03-04T03:04:37.538Z,29.63
2023-03-04T03:07:08.634Z,26.03
2023-03-04T03:09:37.571Z,22.37
2023-03-04T03:12:06.870Z,27.47
2023-03-04T03:14:34.688Z,27.07
2023-03-04T03:17:04.252Z,23.03
2023-03-04T03:19:32.547Z,23.87
2023-03-04T03:22:02.839Z,23.77
2023-03-04T03:24:30.792Z,23.83
2023-03-04T03:26:58.409Z,21.30
2023-03-04T03:29:27.466Z,28.27
2023-03-04T03:31:57.244Z,23.53
2023-03-04T03:34:25.278Z,24.00
2023-03-04T03:36:53.605Z,25.73
2023-03-04T03:39:21.186Z,23.77
2023-03-04T03:41:49.986Z,22.90
2023-03-04T03:44:17.569Z,24.73
2023-03-04T03:46:46.837Z,21.97
2023-03-04T03:49:14.443Z,23.73
2023-03-04T03:51:42.605Z,21.70
2023-03-04T03:54:10.443Z,23.30
2023-03-04T03:56:38.015Z,25.03
2023-03-04T03:59:05.619Z,21.70
2023-03-04T04:01:33.844Z,19.30
2023-03-04T04:04:02.814Z,29.67
2023-03-04T04:06:30.895Z,29.40
2023-03-04T04:08:58.485Z,20.17
2023-03-04T04:11:26.715Z,24.27
2023-03-04T04:13:54.744Z,27.43
2023-03-04T04:16:22.705Z,23.83
2023-03-04T04:18:50.287Z,26.80
2023-03-04T04:21:19.883Z,20.37
2023-03-04T04:23:47.434Z,27.80
2023-03-04T04:26:15.491Z,22.93
2023-03-04T04:28:43.039Z,28.97
2023-03-04T04:31:11.485Z,21.70
2023-03-04T04:33:39.112Z,22.17
2023-03-04T04:36:07.057Z,24.70
2023-03-04T04:38:36.041Z,23.23
2023-03-04T04:41:04.483Z,21.77
2023-03-04T04:43:32.051Z,21.83
2023-03-04T04:46:01.125Z,26.90
2023-03-04T04:48:28.694Z,22.90
2023-03-04T04:50:57.114Z,30.20
2023-03-04T04:53:24.765Z,25.27
2023-03-04T04:55:54.059Z,24.20
2023-03-04T04:58:21.628Z,23.63
2023-03-04T05:00:49.509Z,26.63
2023-03-04T05:03:18.602Z,25.67
2023-03-04T05:05:46.449Z,28.33
2023-03-04T05:08:15.048Z,24.33
2023-03-04T05:10:42.672Z,24.37
2023-03-04T05:13:11.949Z,23.60
2023-03-04T05:15:39.802Z,21.90
2023-03-04T05:18:08.093Z,26.40
2023-03-04T05:20:35.676Z,23.57
2023-03-04T05:23:03.541Z,23.43
2023-03-04T05:25:31.164Z,27.53
2023-03-04T05:27:58.914Z,26.90
2023-03-04T05:30:27.816Z,31.30
2023-03-04T05:32:55.740Z,30.27
2023-03-04T05:35:23.351Z,34.87
2023-03-04T05:37:51.276Z,33.13
2023-03-04T05:40:19.029Z,34.70
2023-03-04T05:42:47.263Z,28.10
2023-03-04T05:45:14.876Z,38.87
2023-03-04T05:47:43.993Z,32.43
2023-03-04T05:50:12.889Z,30.90
2023-03-04T05:52:40.768Z,31.83
2023-03-04T05:55:09.281Z,44.67
2023-03-04T05:57:37.685Z,37.43
2023-03-04T06:00:09.278Z,33.83
2023-03-04T06:02:45.108Z,33.80
2023-03-04T06:05:14.110Z,32.50
2023-03-04T06:07:43.426Z,31.97
2023-03-04T06:10:12.967Z,34.77
2023-03-04T06:12:40.922Z,40.33
2023-03-04T06:15:10.466Z,37.43
2023-03-04T06:17:41.808Z,40.43
2023-03-04T06:20:12.664Z,39.60
2023-03-04T06:22:41.042Z,49.37
2023-03-04T06:25:09.618Z,41.47
2023-03-04T06:27:37.587Z,43.07
2023-03-04T06:30:06.199Z,52.00
2023-03-04T06:32:34.116Z,45.20
2023-03-04T06:35:01.967Z,42.60
2023-03-04T06:37:32.608Z,45.90
2023-03-04T06:40:00.201Z,45.23
2023-03-04T06:42:28.080Z,47.33
2023-03-04T06:44:55.679Z,46.07
2023-03-04T06:47:23.886Z,51.17
2023-03-04T06:49:51.463Z,44.70
2023-03-04T06:52:19.658Z,49.87
2023-03-04T06:54:48.798Z,52.50
2023-03-04T06:57:16.432Z,41.37
2023-03-04T06:59:44.103Z,45.13
2023-03-04T07:02:12.780Z,43.93
2023-03-04T07:04:41.546Z,44.53
2023-03-04T07:07:09.125Z,41.57
2023-03-04T07:09:37.046Z,44.13
2023-03-04T07:12:06.390Z,38.50
2023-03-04T07:14:34.443Z,44.80
2023-03-04T07:17:02.018Z,36.53
2023-03-04T07:19:30.227Z,43.97
2023-03-04T07:21:57.814Z,40.30
2023-03-04T07:24:25.579Z,42.00
2023-03-04T07:26:53.167Z,36.03
2023-03-04T07:29:22.532Z,38.30
2023-03-04T07:31:52.332Z,46.30
2023-03-04T07:34:21.475Z,36.10
2023-03-04T07:36:49.254Z,33.70
2023-03-04T07:39:17.393Z,35.33
2023-03-04T07:41:45.011Z,39.60
2023-03-04T07:44:13.546Z,42.93
2023-03-04T07:46:42.912Z,47.00
2023-03-04T07:49:13.660Z,38.97
2023-03-04T07:51:41.301Z,40.67
2023-03-04T07:54:11.203Z,41.57
2023-03-04T07:56:38.838Z,40.43
2023-03-04T07:59:07.437Z,36.30
2023-03-04T08:01:37.898Z,34.40
2023-03-04T08:04:08.319Z,44.27
2023-03-04T08:06:36.232Z,36.93
2023-03-04T08:09:06.679Z,36.07
2023-03-04T08:11:36.246Z,34.97
2023-03-04T08:14:05.507Z,41.00
2023-03-04T08:16:33.363Z,36.73
2023-03-04T08:19:03.209Z,37.90
2023-03-04T08:21:32.642Z,34.43
2023-03-04T08:24:04.332Z,39.57
2023-03-04T08:26:35.683Z,39.53
2023-03-04T08:29:04.882Z,36.17
2023-03-04T08:31:33.251Z,51.27
2023-03-04T08:34:01.414Z,34.17
2023-03-04T08:36:28.960Z,40.83
2023-03-04T08:38:58.208Z,41.63
2023-03-04T08:41:27.395Z,33.43
2023-03-04T08:43:54.970Z,34.83
2023-03-04T08:46:22.619Z,31.20
2023-03-04T08:48:50.459Z,33.93
2023-03-04T08:51:18.452Z,37.07
2023-03-04T08:53:46.528Z,25.47
2023-03-04T08:56:17.245Z,27.63
2023-03-04T08:58:44.884Z,34.23
2023-03-04T09:01:14.715Z,32.03
2023-03-04T09:03:42.959Z,26.83
2023-03-04T09:06:14.880Z,26.33
2023-03-04T09:08:42.499Z,26.90
2023-03-04T09:11:10.552Z,25.00
2023-03-04T09:13:39.882Z,29.90
2023-03-04T09:16:11.741Z,23.57
2023-03-04T09:18:40.373Z,22.60
2023-03-04T09:21:09.568Z,24.50
2023-03-04T09:23:37.985Z,24.60
2023-03-04T09:26:15.830Z,25.10
2023-03-04T09:28:45.267Z,23.63
2023-03-04T09:31:14.489Z,22.43
2023-03-04T09:33:43.149Z,26.27
2023-03-04T09:36:12.870Z,25.23
2023-03-04T09:38:40.956Z,23.40
2023-03-04T09:41:11.045Z,25.27
2023-03-04T09:43:41.024Z,22.33
2023-03-04T09:46:16.256Z,24.33
2023-03-04T09:48:46.571Z,22.83
2023-03-04T09:51:23.754Z,26.27
2023-03-04T09:54:06.470Z,24.70
2023-03-04T09:56:36.255Z,24.53
2023-03-04T09:59:11.333Z,34.80
2023-03-04T10:01:47.081Z,20.77
2023-03-04T10:04:18.774Z,21.67
2023-03-04T10:06:54.684Z,20.87
2023-03-04T10:09:26.956Z,20.60
2023-03-04T10:12:02.049Z,21.30
2023-03-04T10:14:36.271Z,22.03
2023-03-04T10:17:13.128Z,33.90
2023-03-04T10:19:56.587Z,19.23
2023-03-04T10:22:32.619Z,21.90
2023-03-04T10:25:15.832Z,22.43
2023-03-04T10:27:44.338Z,20.07
2023-03-04T10:30:24.431Z,19.97
2023-03-04T10:32:53.504Z,24.47
2023-03-04T10:35:24.943Z,19.83
2023-03-04T10:37:53.379Z,22.17
2023-03-04T10:40:23.152Z,19.10
2023-03-04T10:42:51.351Z,23.23
2023-03-04T10:45:25.285Z,20.33
2023-03-04T10:47:56.318Z,18.70
2023-03-04T10:50:25.360Z,23.07
2023-03-04T10:52:55.887Z,32.20
2023-03-04T10:55:26.883Z,20.87
2023-03-04T10:57:58.070Z,23.27
2023-03-04T11:00:31.919Z,18.43
2023-03-04T11:03:29.058Z,18.47
2023-03-04T11:06:11.518Z,18.80
2023-03-04T11:08:41.103Z,21.70
2023-03-04T11:11:24.701Z,15.30
2023-03-04T11:13:54.051Z,14.87
2023-03-04T11:16:28.017Z,15.13
2023-03-04T11:19:01.480Z,13.80
2023-03-04T11:21:32.609Z,13.07
2023-03-04T11:24:02.900Z,15.40
2023-03-04T11:26:36.440Z,12.90
2023-03-04T11:29:14.060Z,15.53
2023-03-04T11:31:47.769Z,18.40
2023-03-04T11:34:24.419Z,14.97
2023-03-04T11:36:57.332Z,13.83
2023-03-04T11:39:31.974Z,18.33
2023-03-04T11:42:04.898Z,18.70
2023-03-04T11:44:32.547Z,16.57
2023-03-04T11:47:18.836Z,17.43
2023-03-04T11:50:08.634Z,18.73
2023-03-04T11:52:54.436Z,15.30
2023-03-04T11:55:38.900Z,18.80
2023-03-04T11:58:24.269Z,18.57
2023-03-04T12:00:58.564Z,19.33
2023-03-04T12:03:43.658Z,15.97
2023-03-04T12:06:19.573Z,17.93
2023-03-04T12:08:55.943Z,17.13
2023-03-04T12:11:39.508Z,21.23
2023-03-04T12:14:23.791Z,19.63
2023-03-04T12:17:06.906Z,16.73
2023-03-04T12:19:47.750Z,21.37
2023-03-04T12:22:31.381Z,17.60
2023-03-04T12:25:19.773Z,16.13
2023-03-04T12:27:59.021Z,15.87
2023-03-04T12:30:40.005Z,18.67
2023-03-04T12:33:18.190Z,20.03
2023-03-04T12:35:53.328Z,20.70
2023-03-04T12:38:36.389Z,17.53
2023-03-04T12:41:20.593Z,16.10
2023-03-04T12:43:56.002Z,29.63
2023-03-04T12:46:38.268Z,16.63
2023-03-04T12:49:22.019Z,14.87
2023-03-04T12:51:55.901Z,14.30
2023-03-04T12:54:32.950Z,14.13
2023-03-04T12:57:05.395Z,12.90
2023-03-04T12:59:38.037Z,12.23
2023-03-04T13:02:26.234Z,14.10
2023-03-04T13:05:03.971Z,15.00
2023-03-04T13:07:42.113Z,13.57
2023-03-04T13:10:13.913Z,15.03
2023-03-04T13:12:50.040Z,11.40
2023-03-04T13:15:30.402Z,14.63
2023-03-04T13:17:59.411Z,11.20
2023-03-04T13:20:38.841Z,11.37
2023-03-04T13:23:27.316Z,12.90
2023-03-04T13:28:54.760Z,15.50
2023-03-04T13:31:26.974Z,14.53
2023-03-04T13:34:05.663Z,15.30
2023-03-04T13:36:57.165Z,18.90
2023-03-04T13:39:40.176Z,14.03
2023-03-04T13:42:39.931Z,14.33
2023-03-04T13:45:32.547Z,17.60
2023-03-04T13:48:01.789Z,13.07
2023-03-04T13:50:46.076Z,12.57
2023-03-04T13:53:37.737Z,14.93
2023-03-04T13:56:13.790Z,11.77
2023-03-04T13:58:42.753Z,12.80
2023-03-04T14:01:27.528Z,12.03
2023-03-04T14:03:56.158Z,14.60
2023-03-04T14:06:26.391Z,13.53
2023-03-04T14:08:56.312Z,12.63
2023-03-04T14:11:29.042Z,13.70
2023-03-04T14:14:00.167Z,13.87
2023-03-04T14:16:30.578Z,11.50
2023-03-04T14:19:03.943Z,25.37
2023-03-04T14:21:32.422Z,12.47
2023-03-04T14:24:03.544Z,13.37
2023-03-04T14:26:31.707Z,13.10
2023-03-04T14:28:59.909Z,12.93
2023-03-04T14:31:30.904Z,11.43
2023-03-04T14:34:02.153Z,12.80
2023-03-04T14:36:33.050Z,12.33
2023-03-04T14:39:02.930Z,13.40
2023-03-04T14:41:35.017Z,12.97
2023-03-04T14:44:09.690Z,14.83
2023-03-04T14:46:42.411Z,11.13
2023-03-04T14:49:14.058Z,12.53
2023-03-04T14:51:48.651Z,12.17
2023-03-04T14:54:30.118Z,13.70
2023-03-04T14:56:58.874Z,13.10
2023-03-04T14:59:32.044Z,12.07
2023-03-04T15:02:21.569Z,12.33
2023-03-04T15:04:51.066Z,12.30
2023-03-04T15:07:22.448Z,11.00
2023-03-04T15:09:55.025Z,14.23
2023-03-04T15:12:28.514Z,11.37
2023-03-04T15:14:59.725Z,11.60
2023-03-04T15:17:32.900Z,12.17
2023-03-04T15:20:02.835Z,10.57
2023-03-04T15:22:30.650Z,8.50
2023-03-04T15:24:58.604Z,10.33
2023-03-04T15:27:27.671Z,12.07
2023-03-04T15:29:59.104Z,10.50
2023-03-04T15:32:27.102Z,8.90
2023-03-04T15:34:56.654Z,10.17
2023-03-04T15:37:27.004Z,10.17
2023-03-04T15:39:57.227Z,12.03
2023-03-04T15:42:25.488Z,11.00
2023-03-04T15:44:53.767Z,9.17
2023-03-04T15:47:21.308Z,10.83
2023-03-04T15:49:48.855Z,9.97
2023-03-04T15:52:20.290Z,11.43
2023-03-04T15:54:49.807Z,14.53
2023-03-04T15:57:22.100Z,9.80
2023-03-04T15:59:49.855Z,8.97
2023-03-04T16:02:21.671Z,12.30
2023-03-04T16:04:49.234Z,12.13
2023-03-04T16:07:20.925Z,12.10
2023-03-04T16:09:52.710Z,9.83
2023-03-04T16:12:20.851Z,10.57
2023-03-04T16:14:49.962Z,15.07
2023-03-04T16:17:17.866Z,9.77
2023-03-04T16:19:45.944Z,12.47
2023-03-04T16:22:15.367Z,12.60
2023-03-04T16:24:44.876Z,10.60
2023-03-04T16:27:15.521Z,14.80
2023-03-04T16:29:43.139Z,14.10
2023-03-04T16:32:12.748Z,11.83
2023-03-04T16:34:40.356Z,14.20
2023-03-04T16:37:14.921Z,11.63
2023-03-04T16:39:46.179Z,10.17
2023-03-04T16:42:16.384Z,13.30
2023-03-04T16:44:44.176Z,10.87
2023-03-04T16:47:12.402Z,13.73
2023-03-04T16:49:40.300Z,15.07
2023-03-04T16:52:15.653Z,13.87
2023-03-04T16:54:46.566Z,11.53
2023-03-04T16:57:14.486Z,12.37
2023-03-04T16:59:42.089Z,13.43
2023-03-04T17:02:15.020Z,12.03
2023-03-04T17:04:43.566Z,14.60
2023-03-04T17:07:11.817Z,12.03
2023-03-04T17:09:39.482Z,17.80
2023-03-04T17:12:11.285Z,15.10
2023-03-04T17:14:40.249Z,15.10
2023-03-04T17:17:08.836Z,20.50
2023-03-04T17:19:39.291Z,15.27
2023-03-04T17:22:06.964Z,14.10
2023-03-04T17:24:34.570Z,15.60
2023-03-04T17:27:02.548Z,16.23
2023-03-04T17:29:31.431Z,11.17
2023-03-04T17:31:59.357Z,14.17
2023-03-04T17:34:26.925Z,13.33
2023-03-04T17:36:54.503Z,10.63
2023-03-04T17:39:22.089Z,13.83
2023-03-04T17:41:51.132Z,14.83
2023-03-04T17:44:19.468Z,12.27
2023-03-04T17:46:50.527Z,13.73
2023-03-04T17:49:18.469Z,15.13
2023-03-04T17:51:46.282Z,12.57
2023-03-04T17:54:14.112Z,20.40
2023-03-04T17:56:44.385Z,13.73
2023-03-04T17:59:14.924Z,12.07
2023-03-04T18:01:45.718Z,17.47
2023-03-04T18:04:15.668Z,14.73
2023-03-04T18:06:44.063Z,13.90
2023-03-04T18:09:11.608Z,11.07
2023-03-04T18:11:41.595Z,14.30
2023-03-04T18:14:12.114Z,18.73
2023-03-04T18:16:40.764Z,13.93
2023-03-04T18:19:09.360Z,17.93
2023-03-04T18:21:38.624Z,17.63
2023-03-04T18:24:06.976Z,18.37
2023-03-04T18:26:34.910Z,15.83
2023-03-04T18:29:02.506Z,15.43
2023-03-04T18:31:32.337Z,14.97
2023-03-04T18:34:01.472Z,11.67
2023-03-04T18:36:29.954Z,14.27
2023-03-04T18:38:59.427Z,18.90
2023-03-04T18:41:28.135Z,19.73
2023-03-04T18:43:56.010Z,13.37
2023-03-04T18:46:32.125Z,15.10
2023-03-04T18:49:03.260Z,17.93
2023-03-04T18:51:31.333Z,16.53
2023-03-04T18:54:00.217Z,17.87
2023-03-04T18:56:37.774Z,15.30
2023-03-04T18:59:07.728Z,19.93
2023-03-04T19:01:36.097Z,19.00
2023-03-04T19:04:05.619Z,18.07
2023-03-04T19:06:34.433Z,16.77
2023-03-04T19:09:03.649Z,15.23
2023-03-04T19:11:31.671Z,21.13
2023-03-04T19:13:59.608Z,14.60
2023-03-04T19:16:27.443Z,15.07
2023-03-04T19:18:55.319Z,16.40
2023-03-04T19:21:22.880Z,18.03
2023-03-04T19:23:50.524Z,15.33
2023-03-04T19:26:19.407Z,17.67
2023-03-04T19:28:46.971Z,17.43
2023-03-04T19:31:14.924Z,18.07
2023-03-04T19:33:43.007Z,21.20
2023-03-04T19:36:11.272Z,19.53
2023-03-04T19:38:39.266Z,21.10
2023-03-04T19:41:11.580Z,19.30
2023-03-04T19:43:41.384Z,20.83
2023-03-04T19:46:10.261Z,18.80
2023-03-04T19:48:39.851Z,21.43
2023-03-04T19:51:15.478Z,16.53
2023-03-04T19:53:43.478Z,20.43
2023-03-04T19:56:11.503Z,16.83
2023-03-04T19:58:41.133Z,16.83
2023-03-04T20:01:08.761Z,22.97
2023-03-04T20:03:36.404Z,17.70
2023-03-04T20:06:05.763Z,22.03
2023-03-04T20:08:33.321Z,24.00
2023-03-04T20:11:01.309Z,18.73
2023-03-04T20:13:28.887Z,19.77
2023-03-04T20:15:57.950Z,19.27
2023-03-04T20:18:25.555Z,23.60
2023-03-04T20:20:56.844Z,17.67
2023-03-04T20:23:24.713Z,18.37
2023-03-04T20:25:55.653Z,18.30
2023-03-04T20:28:23.267Z,22.90
2023-03-04T20:30:51.236Z,18.47
2023-03-04T20:33:21.387Z,24.73
2023-03-04T20:35:48.971Z,19.90
2023-03-04T20:38:16.829Z,23.43
2023-03-04T20:40:44.390Z,20.30
2023-03-04T20:43:12.616Z,20.37
2023-03-04T20:45:40.174Z,16.67
2023-03-04T20:48:08.200Z,26.70
2023-03-04T20:50:37.212Z,25.47
2023-03-04T20:53:04.801Z,24.33
2023-03-04T20:55:32.943Z,20.40
2023-03-04T20:58:00.484Z,20.93
2023-03-04T21:00:30.659Z,20.07
2023-03-04T21:02:58.329Z,30.50
2023-03-04T21:05:49.871Z,21.60
2023-03-04T21:08:17.460Z,22.00
2023-03-04T21:10:45.560Z,22.63
2023-03-04T21:13:16.574Z,24.97
2023-03-04T21:15:47.696Z,21.90
2023-03-04T21:18:15.297Z,23.43
2023-03-04T21:20:44.845Z,21.73
2023-03-04T21:23:13.795Z,22.90
2023-03-04T21:25:42.212Z,22.63
2023-03-04T21:28:09.735Z,26.10
2023-03-04T21:30:37.753Z,27.53
2023-03-04T21:33:06.478Z,23.17
2023-03-04T21:35:37.079Z,30.97
2023-03-04T21:38:04.721Z,33.17
2023-03-04T21:40:33.819Z,22.47
2023-03-04T21:43:01.401Z,24.87
2023-03-04T21:45:29.348Z,22.53
2023-03-04T21:47:56.925Z,26.03
2023-03-04T21:50:24.865Z,26.73
2023-03-04T21:52:52.441Z,25.80
2023-03-04T21:55:20.059Z,30.70
2023-03-04T21:57:49.042Z,21.27
2023-03-04T22:00:17.417Z,27.70
2023-03-04T22:02:45.031Z,34.87
2023-03-04T22:05:13.732Z,40.87
2023-03-04T22:07:41.286Z,32.07
2023-03-04T22:10:09.998Z,26.17
2023-03-04T22:12:37.634Z,27.87
2023-03-04T22:15:07.728Z,27.67
2023-03-04T22:17:35.719Z,27.73
2023-03-04T22:20:03.793Z,28.60
2023-03-04T22:22:31.590Z,31.03
2023-03-04T22:25:00.351Z,30.67
2023-03-04T22:27:27.985Z,31.50
2023-03-04T22:29:57.180Z,23.57
2023-03-04T22:32:26.134Z,28.67
2023-03-04T22:34:53.899Z,30.07
2023-03-04T22:37:21.473Z,31.03
2023-03-04T22:39:49.400Z,34.37
2023-03-04T22:42:16.959Z,36.23
2023-03-04T22:44:45.419Z,30.10
2023-03-04T22:47:13.027Z,28.90
2023-03-04T22:49:42.297Z,35.97
2023-03-04T22:52:10.485Z,35.43
2023-03-04T22:54:38.177Z,29.83
2023-03-04T22:57:06.309Z,31.50
2023-03-04T22:59:33.986Z,27.83
2023-03-04T23:02:01.914Z,37.37
2023-03-04T23:04:29.480Z,28.70
2023-03-04T23:06:58.724Z,32.07
2023-03-04T23:09:26.864Z,33.53
2023-03-04T23:11:55.275Z,32.37
2023-03-04T23:14:22.884Z,23.77
2023-03-04T23:16:51.143Z,30.07
2023-03-04T23:19:19.360Z,32.73
2023-03-04T23:21:46.957Z,27.37
2023-03-04T23:24:16.337Z,31.67
2023-03-04T23:26:45.178Z,24.53
2023-03-04T23:29:16.580Z,31.23
2023-03-04T23:31:44.503Z,32.57
2023-03-04T23:34:12.821Z,31.43
2023-03-04T23:36:40.944Z,27.73
2023-03-04T23:39:33.138Z,31.00
2023-03-04T23:42:02.116Z,29.83
2023-03-04T23:44:51.661Z,25.70
2023-03-04T23:47:20.731Z,26.10
2023-03-04T23:49:48.943Z,29.63
2023-03-04T23:52:16.731Z,30.23
2023-03-04T23:54:45.664Z,27.57
2023-03-04T23:57:13.307Z,35.23
2023-03-04T23:59:40.924Z,27.23
